CheckWX is a tool to help pilots better visualize weather data.  It is not intended as a substitute for an official pre-flight weather briefing.

08:24:00 UTC

KPNM METAR
Princeton Municipal Airport
Princeton, Minnesota, USA
Current

9 mins ago

KPNM 220815Z AUTO 00000KT 7SM OVC006 M08/M09 A3035 RMK AO2
Observed
Feb-22 @ 08:15 UTC
Visibility
7 SM
Flight Rules
IFR
Cloud Levels
  • Overcast at 600' AGL
Temperature
-8°C / 18°F
Dewpoint
-9°C / 16°F
Humidity
93%
Altimeter
30.35" Hg
Pressure
1027.82 hPa
Previous

29 mins ago

KPNM 220755Z AUTO 00000KT 10SM OVC006 M08/M09 A3034 RMK AO2
Observed
Feb-22 @ 07:55 UTC
Visibility
10 SM
Flight Rules
IFR
Cloud Levels
  • Overcast at 600' AGL
Temperature
-8°C / 18°F
Dewpoint
-9°C / 16°F
Humidity
93%
Altimeter
30.34" Hg
Pressure
1027.42 hPa
Previous

48 mins ago

KPNM 220736Z AUTO 00000KT 10SM OVC008 M08/M09 A3034 RMK AO2
Observed
Feb-22 @ 07:36 UTC
Visibility
10 SM
Flight Rules
IFR
Cloud Levels
  • Overcast at 800' AGL
Temperature
-8°C / 18°F
Dewpoint
-9°C / 16°F
Humidity
93%
Altimeter
30.34" Hg
Pressure
1027.42 hPa